createdAt,value
2022-12-31T00:00:46.879Z,16.30
2022-12-31T00:03:13.922Z,16.31
2022-12-31T00:05:41.081Z,16.30
2022-12-31T00:08:07.965Z,16.29
2022-12-31T00:10:41.769Z,16.30
2022-12-31T00:13:10.192Z,16.29
2022-12-31T00:15:37.186Z,16.30
2022-12-31T00:18:03.925Z,16.29
2022-12-31T00:20:30.848Z,16.29
2022-12-31T00:22:57.725Z,16.28
2022-12-31T00:25:24.515Z,16.28
2022-12-31T00:27:51.367Z,16.28
2022-12-31T00:30:18.266Z,16.27
2022-12-31T00:32:45.251Z,16.26
2022-12-31T00:35:11.933Z,16.26
2022-12-31T00:37:38.707Z,16.26
2022-12-31T00:40:05.812Z,16.26
2022-12-31T00:42:32.790Z,16.25
2022-12-31T00:44:59.777Z,16.25
2022-12-31T00:47:26.669Z,16.24
2022-12-31T00:49:53.566Z,16.24
2022-12-31T00:52:20.279Z,16.23
2022-12-31T00:54:47.172Z,16.23
2022-12-31T00:57:14.057Z,16.23
2022-12-31T00:59:40.756Z,16.23
2022-12-31T01:02:07.881Z,16.23
2022-12-31T01:04:34.794Z,16.21
2022-12-31T01:07:01.465Z,16.22
2022-12-31T01:09:28.148Z,16.22
2022-12-31T01:11:55.166Z,16.21
2022-12-31T01:14:22.189Z,16.21
2022-12-31T01:16:50.558Z,16.19
2022-12-31T01:19:19.184Z,16.20
2022-12-31T01:21:47.167Z,16.19
2022-12-31T01:24:14.231Z,16.21
2022-12-31T01:26:40.986Z,16.20
2022-12-31T01:29:09.117Z,16.20
2022-12-31T01:31:36.606Z,16.19
2022-12-31T01:34:03.936Z,16.19
2022-12-31T01:36:32.281Z,16.17
2022-12-31T01:39:00.523Z,16.16
2022-12-31T01:41:31.965Z,16.16
2022-12-31T01:43:59.349Z,16.15
2022-12-31T01:46:35.702Z,16.15
2022-12-31T01:49:07.004Z,16.14
2022-12-31T01:51:34.875Z,16.14
2022-12-31T01:54:03.118Z,16.14
2022-12-31T01:56:29.977Z,16.13
2022-12-31T01:58:57.245Z,16.14
2022-12-31T02:01:26.587Z,16.14
2022-12-31T02:03:53.883Z,16.13
2022-12-31T02:06:22.345Z,16.12
2022-12-31T02:08:49.273Z,16.12
2022-12-31T02:11:21.337Z,16.12
2022-12-31T02:13:48.094Z,16.12
2022-12-31T02:16:21.289Z,16.11
2022-12-31T02:18:57.484Z,16.12
2022-12-31T02:21:29.094Z,16.11
2022-12-31T02:24:04.328Z,16.11
2022-12-31T02:26:31.205Z,16.10
2022-12-31T02:29:18.033Z,16.11
2022-12-31T02:31:48.212Z,16.09
2022-12-31T02:34:24.447Z,16.10
2022-12-31T02:36:53.020Z,16.09
2022-12-31T02:39:20.148Z,16.09
2022-12-31T02:41:52.097Z,16.09
2022-12-31T02:44:28.664Z,16.08
2022-12-31T02:47:03.771Z,16.09
2022-12-31T02:49:39.674Z,16.09
2022-12-31T02:52:07.268Z,16.08
2022-12-31T02:54:39.568Z,16.07
2022-12-31T02:57:10.182Z,16.06
2022-12-31T02:59:53.607Z,16.06
2022-12-31T03:02:22.437Z,16.07
2022-12-31T03:04:51.753Z,16.06
2022-12-31T03:07:21.628Z,16.06
2022-12-31T03:09:48.717Z,16.06
2022-12-31T03:12:25.233Z,16.05
2022-12-31T03:14:51.849Z,16.05
2022-12-31T03:17:18.536Z,16.04
2022-12-31T03:19:54.433Z,16.04
2022-12-31T03:22:31.457Z,16.03
2022-12-31T03:25:11.052Z,16.02
2022-12-31T03:27:37.882Z,16.03
2022-12-31T03:30:04.849Z,16.02
2022-12-31T03:32:31.893Z,16.02
2022-12-31T03:34:58.779Z,16.02
2022-12-31T03:37:25.382Z,16.02
2022-12-31T03:39:52.002Z,16.01
2022-12-31T03:42:18.728Z,16.01
2022-12-31T03:44:45.324Z,16.01
2022-12-31T03:47:11.953Z,16.01
2022-12-31T03:49:38.598Z,16.02
2022-12-31T03:52:06.743Z,16.00
2022-12-31T03:54:33.389Z,16.00
2022-12-31T03:57:00.526Z,15.99
2022-12-31T03:59:27.269Z,15.99
2022-12-31T04:01:53.965Z,15.99
2022-12-31T04:04:20.864Z,15.98
2022-12-31T04:06:47.483Z,15.99
2022-12-31T04:09:14.130Z,15.98
2022-12-31T04:11:40.739Z,15.97
2022-12-31T04:14:07.548Z,15.98
2022-12-31T04:16:34.257Z,15.97
2022-12-31T04:19:00.960Z,15.97
2022-12-31T04:21:33.053Z,15.97
2022-12-31T04:24:01.998Z,15.96
2022-12-31T04:26:28.738Z,15.95
2022-12-31T04:28:55.354Z,15.95
2022-12-31T04:31:22.047Z,15.95
2022-12-31T04:33:48.738Z,15.95
2022-12-31T04:36:15.433Z,15.95
2022-12-31T04:38:42.131Z,15.95
2022-12-31T04:41:18.794Z,15.95
2022-12-31T04:43:47.225Z,15.95
2022-12-31T04:46:14.462Z,15.94
2022-12-31T04:48:41.606Z,15.94
2022-12-31T04:51:08.222Z,15.95
2022-12-31T04:53:34.878Z,15.93
2022-12-31T04:56:01.531Z,15.94
2022-12-31T04:58:28.631Z,15.94
2022-12-31T05:00:55.663Z,15.94
2022-12-31T05:03:23.210Z,15.95
2022-12-31T05:05:50.298Z,15.94
2022-12-31T05:08:17.699Z,15.94
2022-12-31T05:10:45.919Z,15.95
2022-12-31T05:13:13.279Z,15.95
2022-12-31T05:15:40.467Z,15.94
2022-12-31T05:18:07.348Z,15.96
2022-12-31T05:20:34.178Z,15.95
2022-12-31T05:23:00.979Z,15.95
2022-12-31T05:25:27.843Z,15.95
2022-12-31T05:27:54.484Z,15.96
2022-12-31T05:30:21.279Z,15.95
2022-12-31T05:32:48.202Z,15.96
2022-12-31T05:35:15.091Z,15.96
2022-12-31T05:37:41.850Z,15.95
2022-12-31T05:40:09.128Z,15.96
2022-12-31T05:42:35.771Z,15.96
2022-12-31T05:45:02.448Z,15.96
2022-12-31T05:47:29.155Z,15.97
2022-12-31T05:49:55.812Z,15.97
2022-12-31T05:52:22.415Z,15.98
2022-12-31T05:54:49.069Z,15.97
2022-12-31T05:57:15.760Z,15.97
2022-12-31T05:59:42.449Z,15.99
2022-12-31T06:02:09.103Z,15.99
2022-12-31T06:04:35.719Z,15.98
2022-12-31T06:07:02.427Z,15.98
2022-12-31T06:09:29.025Z,15.98
2022-12-31T06:11:55.618Z,15.98
2022-12-31T06:14:22.412Z,15.99
2022-12-31T06:16:49.003Z,15.98
2022-12-31T06:19:15.673Z,15.99
2022-12-31T06:21:42.278Z,15.99
2022-12-31T06:24:09.041Z,16.00
2022-12-31T06:26:35.623Z,16.01
2022-12-31T06:29:02.294Z,16.01
2022-12-31T06:31:29.061Z,16.01
2022-12-31T06:33:55.899Z,16.00
2022-12-31T06:36:22.628Z,15.99
2022-12-31T06:38:49.654Z,16.00
2022-12-31T06:41:16.845Z,16.01
2022-12-31T06:43:43.669Z,16.00
2022-12-31T06:46:11.995Z,16.02
2022-12-31T06:48:38.775Z,16.01
2022-12-31T06:51:06.680Z,16.01
2022-12-31T06:53:35.365Z,16.01
2022-12-31T06:56:06.786Z,16.01
2022-12-31T06:58:33.615Z,16.01
2022-12-31T07:01:06.920Z,16.01
2022-12-31T07:03:43.535Z,16.01
2022-12-31T07:06:15.410Z,16.00
2022-12-31T07:08:42.435Z,16.01
2022-12-31T07:11:18.623Z,16.01
2022-12-31T07:13:48.769Z,16.00
2022-12-31T07:16:15.983Z,16.01
2022-12-31T07:18:46.949Z,16.01
2022-12-31T07:21:15.946Z,16.00
2022-12-31T07:23:43.089Z,16.00
2022-12-31T07:26:19.083Z,16.00
2022-12-31T07:28:48.891Z,16.01
2022-12-31T07:31:16.071Z,16.00
2022-12-31T07:33:43.634Z,16.01
2022-12-31T07:36:21.254Z,16.02
2022-12-31T07:38:58.680Z,16.01
2022-12-31T07:41:35.897Z,16.02
2022-12-31T07:44:04.165Z,16.02
2022-12-31T07:46:40.719Z,16.02
2022-12-31T07:49:17.393Z,16.02
2022-12-31T07:51:44.314Z,16.02
2022-12-31T07:54:14.228Z,16.02
2022-12-31T07:56:42.377Z,16.02
2022-12-31T07:59:24.031Z,16.01
2022-12-31T08:02:00.903Z,16.03
2022-12-31T08:04:29.659Z,16.01
2022-12-31T08:06:57.025Z,16.03
2022-12-31T08:09:32.265Z,16.03
2022-12-31T08:12:00.837Z,16.03
2022-12-31T08:14:29.141Z,16.02
2022-12-31T08:16:58.227Z,16.03
2022-12-31T08:19:26.809Z,16.02
2022-12-31T08:22:01.729Z,16.03
2022-12-31T08:24:36.627Z,16.03
2022-12-31T08:27:04.220Z,16.04
2022-12-31T08:29:36.355Z,16.04
2022-12-31T08:32:12.840Z,16.05
2022-12-31T08:34:41.463Z,16.03
2022-12-31T08:37:11.706Z,16.04
2022-12-31T08:39:49.619Z,16.05
2022-12-31T08:42:23.435Z,16.05
2022-12-31T08:44:51.484Z,16.04
2022-12-31T08:47:35.496Z,16.05
2022-12-31T08:50:05.757Z,16.04
2022-12-31T08:52:33.012Z,16.05
2022-12-31T08:55:00.242Z,16.05
2022-12-31T08:57:33.954Z,16.03
2022-12-31T09:00:12.079Z,16.04
2022-12-31T09:02:46.213Z,16.06
2022-12-31T09:05:22.122Z,16.05
2022-12-31T09:07:56.402Z,16.05
2022-12-31T09:10:31.214Z,16.04
2022-12-31T09:12:59.514Z,16.05
2022-12-31T09:15:36.749Z,16.05
2022-12-31T09:18:04.322Z,16.05
2022-12-31T09:20:42.672Z,16.05
2022-12-31T09:23:15.133Z,16.05
2022-12-31T09:25:55.275Z,16.04
2022-12-31T09:28:32.495Z,16.05
2022-12-31T09:31:07.083Z,16.04
2022-12-31T09:33:36.311Z,16.05
2022-12-31T09:36:06.315Z,16.06
2022-12-31T09:38:42.766Z,16.05
2022-12-31T09:41:18.420Z,16.05
2022-12-31T09:43:59.027Z,16.05
2022-12-31T09:46:37.124Z,16.06
2022-12-31T09:49:09.173Z,16.05
2022-12-31T09:51:48.719Z,16.07
2022-12-31T09:54:25.459Z,16.06
2022-12-31T09:57:03.051Z,16.06
2022-12-31T09:59:42.301Z,16.05
2022-12-31T10:02:18.667Z,16.07
2022-12-31T10:04:57.986Z,16.06
2022-12-31T10:07:34.427Z,16.06
2022-12-31T10:10:07.463Z,16.05
2022-12-31T10:12:43.805Z,16.06
2022-12-31T10:15:10.918Z,16.06
2022-12-31T10:17:49.175Z,16.07
2022-12-31T10:20:17.212Z,16.05
2022-12-31T10:22:44.387Z,16.07
2022-12-31T10:25:20.827Z,16.06
2022-12-31T10:28:07.499Z,16.06
2022-12-31T10:30:35.540Z,16.06
2022-12-31T10:33:11.796Z,16.05
2022-12-31T10:35:39.958Z,16.06
2022-12-31T10:38:06.933Z,16.07
2022-12-31T10:40:43.817Z,16.06
2022-12-31T10:43:20.908Z,16.06
2022-12-31T10:45:57.630Z,16.06
2022-12-31T10:48:33.567Z,16.06
2022-12-31T10:51:10.815Z,16.06
2022-12-31T10:53:37.871Z,16.06
2022-12-31T10:56:14.546Z,16.06
2022-12-31T10:58:41.573Z,16.07
2022-12-31T11:01:11.963Z,16.07
2022-12-31T11:03:58.905Z,16.07
2022-12-31T11:06:41.821Z,16.08
2022-12-31T11:09:24.971Z,16.08
2022-12-31T11:11:59.528Z,16.07
2022-12-31T11:14:55.911Z,16.07
2022-12-31T11:17:30.443Z,16.09
2022-12-31T11:20:09.423Z,16.07
2022-12-31T11:22:37.995Z,16.08
2022-12-31T11:25:06.421Z,16.09
2022-12-31T11:27:49.526Z,16.09
2022-12-31T11:30:28.115Z,16.08
2022-12-31T11:33:05.609Z,16.07
2022-12-31T11:35:43.070Z,16.09
2022-12-31T11:38:30.113Z,16.07
2022-12-31T11:41:14.118Z,16.07
2022-12-31T11:43:54.095Z,16.07
2022-12-31T11:46:42.731Z,16.06
2022-12-31T11:49:20.816Z,16.07
2022-12-31T11:52:00.478Z,16.09
2022-12-31T11:54:35.827Z,16.08
2022-12-31T11:57:18.496Z,16.09
2022-12-31T11:59:48.317Z,16.08
2022-12-31T12:02:18.436Z,16.08
2022-12-31T12:04:51.505Z,16.08
2022-12-31T12:07:20.815Z,16.08
2022-12-31T12:09:53.951Z,16.09
2022-12-31T12:12:20.635Z,16.08
2022-12-31T12:14:53.312Z,16.07
2022-12-31T12:17:32.977Z,16.07
2022-12-31T12:20:03.784Z,16.07
2022-12-31T12:22:33.715Z,16.07
2022-12-31T12:25:06.387Z,16.07
2022-12-31T12:27:35.400Z,16.07
2022-12-31T12:30:13.379Z,16.09
2022-12-31T12:32:54.734Z,16.08
2022-12-31T12:35:36.446Z,16.09
2022-12-31T12:38:06.322Z,16.07
2022-12-31T12:40:35.298Z,16.08
2022-12-31T12:43:07.888Z,16.08
2022-12-31T12:45:52.228Z,16.07
2022-12-31T12:48:24.643Z,16.08
2022-12-31T12:50:51.394Z,16.08
2022-12-31T12:53:19.385Z,16.07
2022-12-31T12:55:59.629Z,16.08
2022-12-31T12:58:34.587Z,16.07
2022-12-31T13:01:04.414Z,16.07
2022-12-31T13:04:23.422Z,16.09
2022-12-31T13:06:48.543Z,16.08
2022-12-31T13:09:21.199Z,16.09
2022-12-31T13:12:00.928Z,16.09
2022-12-31T13:14:52.288Z,16.09
2022-12-31T13:17:36.544Z,16.09
2022-12-31T13:20:09.497Z,16.08
2022-12-31T13:22:46.193Z,16.09
2022-12-31T13:25:18.988Z,16.07
2022-12-31T13:27:51.415Z,16.08
2022-12-31T13:30:18.114Z,16.08
2022-12-31T13:32:52.973Z,16.08
2022-12-31T13:35:27.336Z,16.07
2022-12-31T13:38:06.682Z,16.09
2022-12-31T13:40:47.255Z,16.08
2022-12-31T13:43:25.167Z,16.09
2022-12-31T13:46:00.906Z,16.08
2022-12-31T13:48:34.608Z,16.09
2022-12-31T13:51:08.080Z,16.09
2022-12-31T13:53:40.248Z,16.09
2022-12-31T13:56:13.165Z,16.07
2022-12-31T13:58:57.042Z,16.09
2022-12-31T14:01:36.215Z,16.10
2022-12-31T14:04:13.504Z,16.11
2022-12-31T14:06:46.756Z,16.13
2022-12-31T14:12:14.018Z,16.23
2022-12-31T14:14:48.040Z,16.29
2022-12-31T14:17:33.548Z,16.33
2022-12-31T14:20:10.638Z,16.40
2022-12-31T14:22:50.886Z,16.45
2022-12-31T14:25:31.490Z,16.51
2022-12-31T14:28:01.461Z,16.54
2022-12-31T14:30:31.590Z,16.57
2022-12-31T14:33:06.116Z,16.61
2022-12-31T14:35:43.488Z,16.64
2022-12-31T14:38:21.299Z,16.68
2022-12-31T14:40:54.518Z,16.70
2022-12-31T14:43:24.813Z,16.73
2022-12-31T14:46:01.480Z,16.76
2022-12-31T14:48:37.685Z,16.78
2022-12-31T14:51:05.595Z,16.81
2022-12-31T14:53:32.417Z,16.83
2022-12-31T14:56:04.120Z,16.86
2022-12-31T14:58:32.729Z,16.87
2022-12-31T15:01:04.668Z,16.88
2022-12-31T15:03:31.793Z,16.90
2022-12-31T15:06:02.240Z,16.91
2022-12-31T15:08:30.358Z,16.93
2022-12-31T15:11:05.556Z,16.94
2022-12-31T15:13:35.497Z,16.95
2022-12-31T15:16:14.663Z,16.96
2022-12-31T15:18:42.777Z,16.97
2022-12-31T15:21:12.878Z,16.97
2022-12-31T15:23:53.388Z,16.98
2022-12-31T15:26:25.888Z,17.00
2022-12-31T15:29:03.450Z,16.99
2022-12-31T15:31:46.005Z,17.00
2022-12-31T15:34:32.424Z,17.00
2022-12-31T15:37:05.777Z,17.00
2022-12-31T15:39:35.095Z,16.99
2022-12-31T15:42:37.495Z,17.00
2022-12-31T15:44:56.037Z,17.00
2022-12-31T15:47:30.582Z,17.01
2022-12-31T15:50:03.683Z,17.01
2022-12-31T15:52:46.155Z,17.02
2022-12-31T15:55:24.750Z,17.02
2022-12-31T15:57:59.317Z,17.02
2022-12-31T16:00:33.224Z,17.02
2022-12-31T16:03:02.488Z,17.01
2022-12-31T16:05:38.824Z,17.01
2022-12-31T16:08:13.547Z,17.01
2022-12-31T16:10:45.350Z,17.01
2022-12-31T16:13:21.200Z,17.01
2022-12-31T16:15:50.217Z,17.00
2022-12-31T16:18:25.224Z,17.00
2022-12-31T16:20:55.760Z,17.01
2022-12-31T16:23:29.416Z,17.01
2022-12-31T16:26:04.394Z,17.00
2022-12-31T16:28:34.716Z,17.01
2022-12-31T16:31:07.443Z,17.00
2022-12-31T16:33:37.964Z,17.00
2022-12-31T16:36:06.564Z,17.00
2022-12-31T16:38:36.357Z,17.00
2022-12-31T16:41:06.820Z,17.00
2022-12-31T16:46:12.259Z,16.98
2022-12-31T16:48:54.747Z,16.98
2022-12-31T16:51:25.817Z,16.97
2022-12-31T16:54:00.318Z,16.97
2022-12-31T16:56:38.134Z,16.98
2022-12-31T17:02:09.514Z,16.96
2022-12-31T17:04:53.552Z,16.95
2022-12-31T17:07:25.896Z,16.95
2022-12-31T17:10:10.850Z,16.95
2022-12-31T17:13:25.562Z,16.94
2022-12-31T17:15:53.949Z,16.94
2022-12-31T17:18:30.545Z,16.93
2022-12-31T17:21:08.924Z,16.94
2022-12-31T17:23:38.317Z,16.93
2022-12-31T17:26:11.625Z,16.92
2022-12-31T17:28:51.845Z,16.90
2022-12-31T17:31:35.385Z,16.90
2022-12-31T17:34:12.958Z,16.89
2022-12-31T17:36:47.635Z,16.89
2022-12-31T17:39:19.389Z,16.87
2022-12-31T17:41:49.765Z,16.88
2022-12-31T17:44:19.280Z,16.87
2022-12-31T17:46:57.698Z,16.87
2022-12-31T17:49:39.277Z,16.86
2022-12-31T17:52:10.475Z,16.85
2022-12-31T17:54:38.279Z,16.84
2022-12-31T17:57:10.075Z,16.84
2022-12-31T17:59:41.773Z,16.84
2022-12-31T18:02:13.463Z,16.84
2022-12-31T18:04:53.390Z,16.83
2022-12-31T18:07:25.491Z,16.83
2022-12-31T18:09:53.558Z,16.83
2022-12-31T18:12:23.565Z,16.83
2022-12-31T18:14:58.079Z,16.81
2022-12-31T18:17:24.681Z,16.79
2022-12-31T18:20:04.893Z,16.80
2022-12-31T18:22:35.365Z,16.80
2022-12-31T18:25:03.990Z,16.79
2022-12-31T18:27:34.980Z,16.79
2022-12-31T18:30:05.066Z,16.78
2022-12-31T18:32:37.395Z,16.79
2022-12-31T18:35:13.931Z,16.78
2022-12-31T18:37:49.576Z,16.77
2022-12-31T18:40:20.814Z,16.76
2022-12-31T18:42:49.810Z,16.77
2022-12-31T18:45:20.160Z,16.76
2022-12-31T18:47:47.654Z,16.75
2022-12-31T18:50:24.640Z,16.75
2022-12-31T18:52:52.254Z,16.74
2022-12-31T18:55:23.674Z,16.73
2022-12-31T18:57:56.834Z,16.75
2022-12-31T19:00:23.532Z,16.73
2022-12-31T19:02:50.440Z,16.74
2022-12-31T19:05:27.422Z,16.74
2022-12-31T19:07:59.862Z,16.72
2022-12-31T19:10:31.540Z,16.71
2022-12-31T19:12:59.503Z,16.70
2022-12-31T19:15:39.096Z,16.71
2022-12-31T19:18:07.054Z,16.70
2022-12-31T19:20:41.779Z,16.70
2022-12-31T19:23:14.780Z,16.69
2022-12-31T19:25:44.729Z,16.70
2022-12-31T19:28:21.834Z,16.69
2022-12-31T19:30:53.032Z,16.68
2022-12-31T19:33:25.303Z,16.67
2022-12-31T19:35:51.963Z,16.68
2022-12-31T19:38:24.606Z,16.67
2022-12-31T19:40:56.035Z,16.67
2022-12-31T19:43:46.341Z,16.67
2022-12-31T19:46:19.542Z,16.67
2022-12-31T19:48:55.178Z,16.66
2022-12-31T19:51:22.895Z,16.67
2022-12-31T19:53:50.497Z,16.67
2022-12-31T19:56:18.485Z,16.67
2022-12-31T19:58:46.913Z,16.66
2022-12-31T20:01:23.162Z,16.65
2022-12-31T20:03:58.608Z,16.66
2022-12-31T20:06:27.490Z,16.65
2022-12-31T20:08:55.397Z,16.64
2022-12-31T20:11:24.743Z,16.64
2022-12-31T20:13:54.864Z,16.64
2022-12-31T20:16:23.035Z,16.63
2022-12-31T20:18:51.115Z,16.63
2022-12-31T20:21:20.460Z,16.62
2022-12-31T20:23:52.824Z,16.63
2022-12-31T20:26:21.986Z,16.62
2022-12-31T20:28:53.009Z,16.63
2022-12-31T20:31:25.884Z,16.62
2022-12-31T20:33:56.085Z,16.62
2022-12-31T20:36:23.976Z,16.61
2022-12-31T20:38:50.688Z,16.61
2022-12-31T20:41:19.006Z,16.62
2022-12-31T20:43:46.466Z,16.61
2022-12-31T20:46:15.978Z,16.61
2022-12-31T20:48:43.529Z,16.60
2022-12-31T20:51:10.494Z,16.59
2022-12-31T20:53:37.289Z,16.60
2022-12-31T20:56:05.607Z,16.58
2022-12-31T20:58:39.865Z,16.58
2022-12-31T21:01:10.505Z,16.57
2022-12-31T21:06:27.955Z,16.57
2022-12-31T21:08:57.043Z,16.56
2022-12-31T21:11:38.166Z,16.56
2022-12-31T21:14:05.446Z,16.56
2022-12-31T21:16:36.685Z,16.55
2022-12-31T21:19:03.408Z,16.55
2022-12-31T21:21:30.826Z,16.53
2022-12-31T21:23:57.596Z,16.54
2022-12-31T21:26:25.433Z,16.55
2022-12-31T21:28:54.562Z,16.54
2022-12-31T21:31:29.611Z,16.53
2022-12-31T21:33:56.443Z,16.53
2022-12-31T21:36:24.014Z,16.52
2022-12-31T21:38:54.809Z,16.52
2022-12-31T21:41:34.077Z,16.51
2022-12-31T21:44:03.268Z,16.50
2022-12-31T21:46:31.937Z,16.51
2022-12-31T21:49:01.379Z,16.51
2022-12-31T21:51:30.046Z,16.50
2022-12-31T21:53:57.635Z,16.49
2022-12-31T21:56:26.307Z,16.50
2022-12-31T21:59:04.574Z,16.49
2022-12-31T22:01:41.793Z,16.48
2022-12-31T22:04:28.202Z,16.48
2022-12-31T22:06:57.843Z,16.48
2022-12-31T22:09:25.187Z,16.47
2022-12-31T22:11:52.018Z,16.47
2022-12-31T22:14:18.803Z,16.45
2022-12-31T22:16:45.597Z,16.46
2022-12-31T22:19:12.455Z,16.45
2022-12-31T22:21:39.265Z,16.45
2022-12-31T22:24:09.980Z,16.45
2022-12-31T22:26:43.044Z,16.44
2022-12-31T22:29:15.765Z,16.44
2022-12-31T22:31:42.510Z,16.44
2022-12-31T22:34:09.395Z,16.44
2022-12-31T22:36:36.248Z,16.44
2022-12-31T22:39:03.065Z,16.43
2022-12-31T22:41:29.895Z,16.43
2022-12-31T22:44:03.033Z,16.42
2022-12-31T22:46:34.918Z,16.43
2022-12-31T22:49:05.871Z,16.43
2022-12-31T22:51:57.699Z,16.42
2022-12-31T22:54:21.877Z,16.41
2022-12-31T22:56:50.465Z,16.42
2022-12-31T22:59:17.188Z,16.41
2022-12-31T23:01:44.354Z,16.41
2022-12-31T23:04:12.839Z,16.41
2022-12-31T23:06:50.244Z,16.40
2022-12-31T23:09:28.430Z,16.41
2022-12-31T23:11:56.200Z,16.40
2022-12-31T23:14:35.682Z,16.40
2022-12-31T23:17:29.770Z,16.40
2022-12-31T23:20:09.546Z,16.39
2022-12-31T23:22:49.131Z,16.39
2022-12-31T23:25:16.464Z,16.39
2022-12-31T23:27:43.846Z,16.39
2022-12-31T23:30:11.152Z,16.38
2022-12-31T23:32:37.909Z,16.38
2022-12-31T23:35:09.841Z,16.37
2022-12-31T23:37:36.912Z,16.37
2022-12-31T23:40:03.868Z,16.36
2022-12-31T23:42:30.512Z,16.37
2022-12-31T23:44:57.304Z,16.37
2022-12-31T23:47:24.046Z,16.36
2022-12-31T23:49:50.735Z,16.35
2022-12-31T23:52:17.413Z,16.35
2022-12-31T23:54:44.096Z,16.35
2022-12-31T23:57:11.022Z,16.35
2022-12-31T23:59:37.660Z,16.35
